createdAt,value
2018-08-18T00:00:11.723Z,20.79
2018-08-18T00:01:11.650Z,20.82
2018-08-18T00:02:32.562Z,20.75
2018-08-18T00:03:11.509Z,20.79
2018-08-18T00:04:11.437Z,20.80
2018-08-18T00:05:11.448Z,20.76
2018-08-18T00:06:11.292Z,20.79
2018-08-18T00:07:11.219Z,20.82
2018-08-18T00:08:32.136Z,20.90
2018-08-18T00:09:11.080Z,20.74
2018-08-18T00:10:11.007Z,20.87
2018-08-18T00:11:10.932Z,20.76
2018-08-18T00:12:10.866Z,20.74
2018-08-18T00:13:10.795Z,20.83
2018-08-18T00:14:31.702Z,20.87
2018-08-18T00:15:10.660Z,20.86
2018-08-18T00:16:10.577Z,20.83
2018-08-18T00:17:10.505Z,20.83
2018-08-18T00:18:10.435Z,20.80
2018-08-18T00:19:10.362Z,20.79
2018-08-18T00:20:31.420Z,20.82
2018-08-18T00:21:10.222Z,20.75
2018-08-18T00:22:10.146Z,20.76
2018-08-18T00:23:10.080Z,20.87
2018-08-18T00:24:10.021Z,20.76
2018-08-18T00:25:09.937Z,20.82
2018-08-18T00:26:30.848Z,20.82
2018-08-18T00:27:09.794Z,20.76
2018-08-18T00:28:09.727Z,20.82
2018-08-18T00:29:09.649Z,20.86
2018-08-18T00:30:09.579Z,20.86
2018-08-18T00:31:09.508Z,20.86
2018-08-18T00:32:30.424Z,20.86
2018-08-18T00:33:09.437Z,20.79
2018-08-18T00:34:09.540Z,20.91
2018-08-18T00:35:09.221Z,20.90
2018-08-18T00:36:09.146Z,20.72
2018-08-18T00:37:09.074Z,20.84
2018-08-18T00:38:29.984Z,20.79
2018-08-18T00:39:08.933Z,20.87
2018-08-18T00:40:08.862Z,20.83
2018-08-18T00:41:08.793Z,20.69
2018-08-18T00:42:08.721Z,20.80
2018-08-18T00:43:08.654Z,20.79
2018-08-18T00:44:29.557Z,20.79
2018-08-18T00:45:08.503Z,20.69
2018-08-18T00:46:08.431Z,20.64
2018-08-18T00:47:08.366Z,20.83
2018-08-18T00:48:08.292Z,20.80
2018-08-18T00:49:08.266Z,20.69
2018-08-18T00:50:29.126Z,20.65
2018-08-18T00:51:08.074Z,20.64
2018-08-18T00:52:07.999Z,20.66
2018-08-18T00:53:07.933Z,20.71
2018-08-18T00:54:07.860Z,20.71
2018-08-18T00:55:07.792Z,20.79
2018-08-18T00:56:28.710Z,20.71
2018-08-18T00:57:07.642Z,20.82
2018-08-18T00:58:07.573Z,20.83
2018-08-18T00:59:07.498Z,20.72
2018-08-18T01:00:07.432Z,20.75
2018-08-18T01:01:07.348Z,20.75
2018-08-18T01:02:28.265Z,20.80
2018-08-18T01:03:07.205Z,20.79
2018-08-18T01:04:07.133Z,20.76
2018-08-18T01:05:07.072Z,20.75
2018-08-18T01:06:06.988Z,20.80
2018-08-18T01:07:06.931Z,20.71
2018-08-18T01:08:27.832Z,20.87
2018-08-18T01:09:06.780Z,20.84
2018-08-18T01:10:06.702Z,20.83
2018-08-18T01:11:06.764Z,20.87
2018-08-18T01:12:06.693Z,20.76
2018-08-18T01:13:06.547Z,20.79
2018-08-18T01:14:27.557Z,20.80
2018-08-18T01:15:06.418Z,20.86
2018-08-18T01:16:06.277Z,20.74
2018-08-18T01:17:06.212Z,20.75
2018-08-18T01:18:06.128Z,20.75
2018-08-18T01:19:06.072Z,20.68
2018-08-18T01:20:26.971Z,20.71
2018-08-18T01:21:05.926Z,20.64
2018-08-18T01:22:05.844Z,20.74
2018-08-18T01:23:05.783Z,20.66
2018-08-18T01:24:05.708Z,20.65
2018-08-18T01:25:05.635Z,20.71
2018-08-18T01:26:26.538Z,20.65
2018-08-18T01:27:05.500Z,20.59
2018-08-18T01:28:05.418Z,20.53
2018-08-18T01:29:05.350Z,20.53
2018-08-18T01:30:05.268Z,20.59
2018-08-18T01:31:05.213Z,20.61
2018-08-18T01:32:26.118Z,20.54
2018-08-18T01:33:05.061Z,20.59
2018-08-18T01:34:04.983Z,20.53
2018-08-18T01:35:04.917Z,20.53
2018-08-18T01:36:04.836Z,20.56
2018-08-18T01:37:04.778Z,20.50
2018-08-18T01:38:25.678Z,20.53
2018-08-18T01:39:04.673Z,20.49
2018-08-18T01:40:04.553Z,20.49
2018-08-18T01:41:04.486Z,20.47
2018-08-18T01:42:04.409Z,20.38
2018-08-18T01:43:04.355Z,20.30
2018-08-18T01:44:25.248Z,20.43
2018-08-18T01:45:04.211Z,20.38
2018-08-18T01:46:04.116Z,20.38
2018-08-18T01:47:04.055Z,20.38
2018-08-18T01:48:03.980Z,20.28
2018-08-18T01:49:03.917Z,20.37
2018-08-18T01:50:24.826Z,20.37
2018-08-18T01:51:03.770Z,20.38
2018-08-18T01:52:03.687Z,20.30
2018-08-18T01:53:03.629Z,20.30
2018-08-18T01:54:03.542Z,20.27
2018-08-18T01:55:03.482Z,20.26
2018-08-18T01:56:24.389Z,20.12
2018-08-18T01:57:03.337Z,20.18
2018-08-18T01:58:03.262Z,20.15
2018-08-18T01:59:03.196Z,20.13
2018-08-18T02:00:03.115Z,20.16
2018-08-18T02:01:03.052Z,20.10
2018-08-18T02:02:23.953Z,20.10
2018-08-18T02:03:02.907Z,20.05
2018-08-18T02:04:02.827Z,20.05
2018-08-18T02:05:02.763Z,20.06
2018-08-18T02:06:02.685Z,20.05
2018-08-18T02:07:02.621Z,20.05
2018-08-18T02:08:23.530Z,19.98
2018-08-18T02:09:02.474Z,20.05
2018-08-18T02:10:02.399Z,19.93
2018-08-18T02:11:02.331Z,20.05
2018-08-18T02:12:02.250Z,19.97
2018-08-18T02:13:02.187Z,19.97
2018-08-18T02:14:23.088Z,19.94
2018-08-18T02:15:02.041Z,20.00
2018-08-18T02:16:01.963Z,19.95
2018-08-18T02:17:01.898Z,19.94
2018-08-18T02:18:01.821Z,19.93
2018-08-18T02:19:01.758Z,19.88
2018-08-18T02:20:22.662Z,19.82
2018-08-18T02:21:01.608Z,19.90
2018-08-18T02:22:01.530Z,19.78
2018-08-18T02:23:01.466Z,19.75
2018-08-18T02:24:01.389Z,19.75
2018-08-18T02:25:01.323Z,19.75
2018-08-18T02:26:22.224Z,19.75
2018-08-18T02:27:01.179Z,19.73
2018-08-18T02:28:01.102Z,19.72
2018-08-18T02:29:01.036Z,19.68
2018-08-18T02:30:00.953Z,19.68
2018-08-18T02:31:00.894Z,19.65
2018-08-18T02:32:21.796Z,19.61
2018-08-18T02:33:00.747Z,19.64
2018-08-18T02:34:00.663Z,19.57
2018-08-18T02:35:00.601Z,19.61
2018-08-18T02:36:00.521Z,19.55
2018-08-18T02:37:00.456Z,19.57
2018-08-18T02:38:21.357Z,19.55
2018-08-18T02:39:00.312Z,19.53
2018-08-18T02:40:00.258Z,19.53
2018-08-18T02:41:00.169Z,19.45
2018-08-18T02:42:00.088Z,19.55
2018-08-18T02:43:00.021Z,19.57
2018-08-18T02:44:20.927Z,19.48
2018-08-18T02:44:59.881Z,19.45
2018-08-18T02:45:59.798Z,19.36
2018-08-18T02:46:59.732Z,19.38
2018-08-18T02:47:59.653Z,19.39
2018-08-18T02:48:59.590Z,19.43
2018-08-18T02:50:20.492Z,19.25
2018-08-18T02:50:59.444Z,19.32
2018-08-18T02:51:59.364Z,19.31
2018-08-18T02:52:59.300Z,19.27
2018-08-18T02:53:59.220Z,19.33
2018-08-18T02:54:59.161Z,19.31
2018-08-18T02:56:20.059Z,19.28
2018-08-18T02:56:59.017Z,19.35
2018-08-18T02:57:58.928Z,19.33
2018-08-18T02:58:58.867Z,19.28
2018-08-18T02:59:58.787Z,19.25
2018-08-18T03:00:58.738Z,19.21
2018-08-18T03:02:19.621Z,19.06
2018-08-18T03:02:58.578Z,19.06
2018-08-18T03:03:58.496Z,18.94
2018-08-18T03:04:58.436Z,18.79
2018-08-18T03:05:58.351Z,18.68
2018-08-18T03:06:58.286Z,18.61
2018-08-18T03:08:19.192Z,18.65
2018-08-18T03:08:58.142Z,18.73
2018-08-18T03:09:58.063Z,18.68
2018-08-18T03:10:57.998Z,18.67
2018-08-18T03:11:57.917Z,18.65
2018-08-18T03:12:57.864Z,18.68
2018-08-18T03:14:18.751Z,18.67
2018-08-18T03:14:57.708Z,18.65
2018-08-18T03:15:57.633Z,18.69
2018-08-18T03:16:57.562Z,18.82
2018-08-18T03:17:57.479Z,18.77
2018-08-18T03:18:57.424Z,18.89
2018-08-18T03:20:18.321Z,18.90
2018-08-18T03:20:57.269Z,18.90
2018-08-18T03:21:57.186Z,18.99
2018-08-18T03:22:57.123Z,19.02
2018-08-18T03:23:57.047Z,19.02
2018-08-18T03:24:56.981Z,19.01
2018-08-18T03:26:17.881Z,19.05
2018-08-18T03:26:56.834Z,19.09
2018-08-18T03:27:56.752Z,19.21
2018-08-18T03:28:56.757Z,19.20
2018-08-18T03:29:56.606Z,19.18
2018-08-18T03:30:56.546Z,19.33
2018-08-18T03:32:17.462Z,19.31
2018-08-18T03:32:56.397Z,19.31
2018-08-18T03:33:56.316Z,19.31
2018-08-18T03:34:56.253Z,19.39
2018-08-18T03:35:56.167Z,19.32
2018-08-18T03:36:56.108Z,19.28
2018-08-18T03:38:17.006Z,19.45
2018-08-18T03:38:55.965Z,19.40
2018-08-18T03:39:55.883Z,19.40
2018-08-18T03:40:55.815Z,19.50
2018-08-18T03:41:55.735Z,19.48
2018-08-18T03:42:55.671Z,19.54
2018-08-18T03:44:16.575Z,19.51
2018-08-18T03:44:55.528Z,19.50
2018-08-18T03:45:55.443Z,19.48
2018-08-18T03:46:55.381Z,19.48
2018-08-18T03:47:55.307Z,19.50
2018-08-18T03:48:55.233Z,19.53
2018-08-18T03:50:16.137Z,19.45
2018-08-18T03:50:55.087Z,19.51
2018-08-18T03:51:55.015Z,19.53
2018-08-18T03:52:54.949Z,19.51
2018-08-18T03:53:54.866Z,19.51
2018-08-18T03:54:54.805Z,19.51
2018-08-18T03:56:15.700Z,19.50
2018-08-18T03:56:54.654Z,19.58
2018-08-18T03:57:54.579Z,19.50
2018-08-18T03:58:54.504Z,19.58
2018-08-18T03:59:54.429Z,19.63
2018-08-18T04:00:54.361Z,19.58
2018-08-18T04:02:15.271Z,19.64
2018-08-18T04:02:54.217Z,19.63
2018-08-18T04:03:54.139Z,19.65
2018-08-18T04:04:54.071Z,19.72
2018-08-18T04:05:53.995Z,19.68
2018-08-18T04:06:53.934Z,19.68
2018-08-18T04:08:14.833Z,19.76
2018-08-18T04:08:53.785Z,19.76
2018-08-18T04:09:53.704Z,19.82
2018-08-18T04:10:53.637Z,19.76
2018-08-18T04:11:53.557Z,19.76
2018-08-18T04:12:53.492Z,19.78
2018-08-18T04:14:14.407Z,19.80
2018-08-18T04:14:53.349Z,19.71
2018-08-18T04:15:53.269Z,19.75
2018-08-18T04:16:53.209Z,19.68
2018-08-18T04:17:53.122Z,19.75
2018-08-18T04:18:53.100Z,19.78
2018-08-18T04:20:13.956Z,19.72
2018-08-18T04:20:52.911Z,19.72
2018-08-18T04:21:52.833Z,19.80
2018-08-18T04:22:52.767Z,19.78
2018-08-18T04:23:52.689Z,19.76
2018-08-18T04:24:52.622Z,19.87
2018-08-18T04:26:13.542Z,19.79
2018-08-18T04:26:52.486Z,19.83
2018-08-18T04:27:52.399Z,19.72
2018-08-18T04:28:52.333Z,19.86
2018-08-18T04:29:52.251Z,19.76
2018-08-18T04:30:52.189Z,19.76
2018-08-18T04:32:13.093Z,19.75
2018-08-18T04:32:52.054Z,19.79
2018-08-18T04:33:51.960Z,19.78
2018-08-18T04:34:51.895Z,19.75
2018-08-18T04:35:51.817Z,19.82
2018-08-18T04:36:51.758Z,19.88
2018-08-18T04:38:12.656Z,19.80
2018-08-18T04:38:51.606Z,19.86
2018-08-18T04:39:51.530Z,19.86
2018-08-18T04:40:51.467Z,19.86
2018-08-18T04:41:51.378Z,19.91
2018-08-18T04:42:51.316Z,19.90
2018-08-18T04:44:12.221Z,19.87
2018-08-18T04:44:51.174Z,19.79
2018-08-18T04:45:51.090Z,19.91
2018-08-18T04:46:51.025Z,19.83
2018-08-18T04:47:50.951Z,19.91
2018-08-18T04:48:50.881Z,19.83
2018-08-18T04:50:11.783Z,19.83
2018-08-18T04:50:50.744Z,19.93
2018-08-18T04:51:50.654Z,19.87
2018-08-18T04:52:50.595Z,19.95
2018-08-18T04:53:50.511Z,19.87
2018-08-18T04:54:50.450Z,19.97
2018-08-18T04:56:11.352Z,19.87
2018-08-18T04:56:50.329Z,19.80
2018-08-18T04:57:50.218Z,19.80
2018-08-18T04:58:50.159Z,19.82
2018-08-18T04:59:50.075Z,19.83
2018-08-18T05:00:50.019Z,19.87
2018-08-18T05:02:10.916Z,19.87
2018-08-18T05:02:49.869Z,19.88
2018-08-18T05:03:49.790Z,19.83
2018-08-18T05:04:49.731Z,19.83
2018-08-18T05:05:49.645Z,19.80
2018-08-18T05:06:49.617Z,19.83
2018-08-18T05:08:10.484Z,19.87
2018-08-18T05:08:49.518Z,19.80
2018-08-18T05:09:49.352Z,19.82
2018-08-18T05:10:49.293Z,19.88
2018-08-18T05:11:49.206Z,19.88
2018-08-18T05:12:49.147Z,19.90
2018-08-18T05:14:10.047Z,19.90
2018-08-18T05:14:49.005Z,19.88
2018-08-18T05:15:48.920Z,19.91
2018-08-18T05:16:48.854Z,19.97
2018-08-18T05:17:48.775Z,19.93
2018-08-18T05:18:48.746Z,19.91
2018-08-18T05:20:09.615Z,19.86
2018-08-18T05:20:48.567Z,19.94
2018-08-18T05:21:48.483Z,19.82
2018-08-18T05:22:48.419Z,19.90
2018-08-18T05:23:48.341Z,19.93
2018-08-18T05:24:48.274Z,19.95
2018-08-18T05:26:09.175Z,19.83
2018-08-18T05:26:48.135Z,19.79
2018-08-18T05:27:48.052Z,19.87
2018-08-18T05:28:47.983Z,19.87
2018-08-18T05:29:47.902Z,19.91
2018-08-18T05:30:47.837Z,19.83
2018-08-18T05:32:08.750Z,19.93
2018-08-18T05:32:47.696Z,19.91
2018-08-18T05:33:47.623Z,19.88
2018-08-18T05:34:47.548Z,19.88
2018-08-18T05:35:47.466Z,19.97
2018-08-18T05:36:47.408Z,19.95
2018-08-18T05:38:08.305Z,19.97
2018-08-18T05:38:47.260Z,20.03
2018-08-18T05:39:47.178Z,20.09
2018-08-18T05:40:47.118Z,20.05
2018-08-18T05:41:47.036Z,20.12
2018-08-18T05:42:46.973Z,20.08
2018-08-18T05:44:07.873Z,20.16
2018-08-18T05:44:46.826Z,20.12
2018-08-18T05:45:46.742Z,20.15
2018-08-18T05:46:46.681Z,20.16
2018-08-18T05:47:46.601Z,20.23
2018-08-18T05:48:46.548Z,20.26
2018-08-18T05:50:07.439Z,20.33
2018-08-18T05:50:46.393Z,20.38
2018-08-18T05:51:46.313Z,20.33
2018-08-18T05:52:46.245Z,20.34
2018-08-18T05:53:46.175Z,20.28
2018-08-18T05:54:46.107Z,20.38
2018-08-18T05:56:07.007Z,20.40
2018-08-18T05:56:45.957Z,20.53
2018-08-18T05:57:45.877Z,20.47
2018-08-18T05:58:45.813Z,20.56
2018-08-18T05:59:45.809Z,20.54
2018-08-18T06:00:45.668Z,20.47
2018-08-18T06:02:06.578Z,20.47
2018-08-18T06:02:45.526Z,20.51
2018-08-18T06:03:45.452Z,20.47
2018-08-18T06:04:45.385Z,20.62
2018-08-18T06:05:45.370Z,20.64
2018-08-18T06:06:45.237Z,20.62
2018-08-18T06:08:06.142Z,20.56
2018-08-18T06:08:45.090Z,20.56
2018-08-18T06:09:45.088Z,20.61
2018-08-18T06:10:44.938Z,20.62
2018-08-18T06:11:44.872Z,20.69
2018-08-18T06:12:44.809Z,20.68
2018-08-18T06:14:05.714Z,20.71
2018-08-18T06:14:44.714Z,20.66
2018-08-18T06:15:44.585Z,20.69
2018-08-18T06:16:44.639Z,20.72
2018-08-18T06:17:44.430Z,20.80
2018-08-18T06:18:44.373Z,20.72
2018-08-18T06:20:05.283Z,20.79
2018-08-18T06:20:44.243Z,20.68
2018-08-18T06:21:44.151Z,20.69
2018-08-18T06:22:44.159Z,20.76
2018-08-18T06:23:44.002Z,20.76
2018-08-18T06:24:43.934Z,20.76
2018-08-18T06:26:04.841Z,20.87
2018-08-18T06:26:43.789Z,20.79
2018-08-18T06:27:43.714Z,20.86
2018-08-18T06:28:43.648Z,20.89
2018-08-18T06:29:43.569Z,20.93
2018-08-18T06:30:43.509Z,20.94
2018-08-18T06:32:04.411Z,20.98
2018-08-18T06:32:43.366Z,21.01
2018-08-18T06:33:43.283Z,21.05
2018-08-18T06:34:43.272Z,21.05
2018-08-18T06:35:43.137Z,21.08
2018-08-18T06:36:43.075Z,21.05
2018-08-18T06:38:03.976Z,21.21
2018-08-18T06:38:42.932Z,21.08
2018-08-18T06:39:42.852Z,21.17
2018-08-18T06:40:42.784Z,21.20
2018-08-18T06:41:42.896Z,21.19
2018-08-18T06:42:42.645Z,21.14
2018-08-18T06:44:03.552Z,21.31
2018-08-18T06:44:42.501Z,21.29
2018-08-18T06:45:42.422Z,21.36
2018-08-18T06:46:42.359Z,21.38
2018-08-18T06:47:42.280Z,21.41
2018-08-18T06:48:42.288Z,21.44
2018-08-18T06:50:03.133Z,21.42
2018-08-18T06:50:42.067Z,21.54
2018-08-18T06:51:42.106Z,21.59
2018-08-18T06:52:41.916Z,21.59
2018-08-18T06:53:41.916Z,21.48
2018-08-18T06:54:41.811Z,21.66
2018-08-18T06:56:02.693Z,21.69
2018-08-18T06:56:41.636Z,21.66
2018-08-18T06:57:41.567Z,21.69
2018-08-18T06:58:41.502Z,21.72
2018-08-18T06:59:41.420Z,21.78
2018-08-18T07:00:41.341Z,21.76
2018-08-18T07:02:02.263Z,21.85
2018-08-18T07:02:41.197Z,21.85
2018-08-18T07:03:41.138Z,21.86
2018-08-18T07:04:41.052Z,21.91
2018-08-18T07:05:40.998Z,21.97
2018-08-18T07:06:40.921Z,22.01
2018-08-18T07:08:01.822Z,22.04
2018-08-18T07:08:40.775Z,22.02
2018-08-18T07:09:40.699Z,21.98
2018-08-18T07:10:40.632Z,22.05
2018-08-18T07:11:40.563Z,22.10
2018-08-18T07:12:40.492Z,22.12
2018-08-18T07:14:01.999Z,22.15
2018-08-18T07:14:40.342Z,22.20
2018-08-18T07:15:40.283Z,22.23
2018-08-18T07:16:40.209Z,22.32
2018-08-18T07:17:40.123Z,22.35
2018-08-18T07:18:40.060Z,22.42
2018-08-18T07:20:00.967Z,22.47
2018-08-18T07:20:39.921Z,22.52
2018-08-18T07:21:39.845Z,22.59
2018-08-18T07:22:39.777Z,22.53
2018-08-18T07:23:39.694Z,22.67
2018-08-18T07:24:39.675Z,22.67
2018-08-18T07:26:00.542Z,22.71
2018-08-18T07:26:39.587Z,22.79
2018-08-18T07:27:39.411Z,22.81
2018-08-18T07:28:39.452Z,22.90
2018-08-18T07:29:39.267Z,22.87
2018-08-18T07:30:39.308Z,22.92
2018-08-18T07:32:00.112Z,22.99
2018-08-18T07:32:39.114Z,23.02
2018-08-18T07:33:38.985Z,23.14
2018-08-18T07:34:38.924Z,23.18
2018-08-18T07:35:38.844Z,23.26
2018-08-18T07:36:38.835Z,23.27
2018-08-18T07:37:59.690Z,23.40
2018-08-18T07:38:38.747Z,23.33
2018-08-18T07:39:38.561Z,23.42
2018-08-18T07:40:40.606Z,23.43
2018-08-18T07:41:38.420Z,23.34
2018-08-18T07:42:38.358Z,23.40
2018-08-18T07:43:59.258Z,23.38
2018-08-18T07:44:40.322Z,23.40
2018-08-18T07:45:38.138Z,23.37
2018-08-18T07:46:38.191Z,23.45
2018-08-18T07:47:38.000Z,23.53
2018-08-18T07:48:37.995Z,23.55
2018-08-18T07:49:58.845Z,23.70
2018-08-18T07:50:37.802Z,23.61
2018-08-18T07:51:37.716Z,23.74
2018-08-18T07:52:37.714Z,23.72
2018-08-18T07:53:37.607Z,23.74
2018-08-18T07:54:37.527Z,23.78
2018-08-18T07:55:58.416Z,23.80
2018-08-18T07:56:37.433Z,23.87
2018-08-18T07:57:37.300Z,23.92
2018-08-18T07:58:37.244Z,24.02
2018-08-18T07:59:37.208Z,23.98
2018-08-18T08:00:37.155Z,24.10
2018-08-18T08:01:57.997Z,24.11
2018-08-18T08:02:36.961Z,24.20
2018-08-18T08:03:36.867Z,24.17
2018-08-18T08:04:36.872Z,24.15
2018-08-18T08:05:36.752Z,24.27
2018-08-18T08:06:36.682Z,24.30
2018-08-18T08:07:57.575Z,24.32
2018-08-18T08:08:36.594Z,24.40
2018-08-18T08:09:36.451Z,24.29
2018-08-18T08:10:36.384Z,24.32
2018-08-18T08:11:36.315Z,24.27
2018-08-18T08:12:36.321Z,24.37
2018-08-18T08:13:57.162Z,24.41
2018-08-18T08:14:36.103Z,24.38
2018-08-18T08:15:36.131Z,24.37
2018-08-18T08:16:35.961Z,24.50
2018-08-18T08:17:36.004Z,24.54
2018-08-18T08:18:35.820Z,24.60
2018-08-18T08:19:56.838Z,24.64
2018-08-18T08:20:35.680Z,24.63
2018-08-18T08:21:35.620Z,24.62
2018-08-18T08:22:35.546Z,24.71
2018-08-18T08:23:35.568Z,24.78
2018-08-18T08:24:35.407Z,24.82
2018-08-18T08:25:56.366Z,25.02
2018-08-18T08:26:35.265Z,25.10
2018-08-18T08:27:35.285Z,25.17
2018-08-18T08:28:35.127Z,25.30
2018-08-18T08:29:35.094Z,25.56
2018-08-18T08:30:34.984Z,25.67
2018-08-18T08:31:55.997Z,25.82
2018-08-18T08:32:34.848Z,25.87
2018-08-18T08:33:34.779Z,25.92
2018-08-18T08:34:34.829Z,25.99
2018-08-18T08:35:34.638Z,25.97
2018-08-18T08:36:34.580Z,26.09
2018-08-18T08:37:55.530Z,26.15
2018-08-18T08:38:34.543Z,26.02
2018-08-18T08:39:34.360Z,25.84
2018-08-18T08:40:34.352Z,25.84
2018-08-18T08:41:34.227Z,25.83
2018-08-18T08:42:34.164Z,25.86
2018-08-18T08:43:55.073Z,25.86
2018-08-18T08:44:34.032Z,26.02
2018-08-18T08:45:33.950Z,26.18
2018-08-18T08:46:33.981Z,26.05
2018-08-18T08:47:33.813Z,25.94
2018-08-18T08:48:33.758Z,25.90
2018-08-18T08:49:54.659Z,26.11
2018-08-18T08:50:33.700Z,26.16
2018-08-18T08:51:33.555Z,26.24
2018-08-18T08:52:33.508Z,26.24
2018-08-18T08:53:33.404Z,26.27
2018-08-18T08:54:33.459Z,26.50
2018-08-18T08:55:54.264Z,26.42
2018-08-18T08:56:33.230Z,26.47
2018-08-18T08:57:33.134Z,26.52
2018-08-18T08:58:33.140Z,26.61
2018-08-18T08:59:32.999Z,26.60
2018-08-18T09:00:32.948Z,26.72
2018-08-18T09:01:53.847Z,26.71
2018-08-18T09:02:32.860Z,26.94
2018-08-18T09:03:32.723Z,26.99
2018-08-18T09:04:32.771Z,27.17
2018-08-18T09:05:32.586Z,27.34
2018-08-18T09:06:32.581Z,27.34
2018-08-18T09:07:53.440Z,27.46
2018-08-18T09:08:32.494Z,27.67
2018-08-18T09:09:32.314Z,27.70
2018-08-18T09:10:32.299Z,27.83
2018-08-18T09:11:32.179Z,27.87
2018-08-18T09:12:32.210Z,27.87
2018-08-18T09:13:53.032Z,27.95
2018-08-18T09:14:32.019Z,27.95
2018-08-18T09:15:31.908Z,27.80
2018-08-18T09:16:31.928Z,27.98
2018-08-18T09:17:31.778Z,27.95
2018-08-18T09:18:31.738Z,27.84
2018-08-18T09:19:52.626Z,27.87
2018-08-18T09:20:31.649Z,27.94
2018-08-18T09:21:31.508Z,27.91
2018-08-18T09:22:31.463Z,27.92
2018-08-18T09:23:31.378Z,27.98
2018-08-18T09:24:31.366Z,28.04
2018-08-18T09:25:52.264Z,28.13
2018-08-18T09:26:31.361Z,28.22
2018-08-18T09:27:31.113Z,28.32
2018-08-18T09:28:31.089Z,28.32
2018-08-18T09:29:30.977Z,28.46
2018-08-18T09:30:31.004Z,28.59
2018-08-18T09:31:51.841Z,28.69
2018-08-18T09:32:30.811Z,28.90
2018-08-18T09:33:30.709Z,29.06
2018-08-18T09:34:30.719Z,29.11
2018-08-18T09:35:30.573Z,29.28
2018-08-18T09:36:30.539Z,29.47
2018-08-18T09:37:51.427Z,29.51
2018-08-18T09:38:30.441Z,29.66
2018-08-18T09:39:30.308Z,29.75
2018-08-18T09:40:30.350Z,29.69
2018-08-18T09:41:30.174Z,29.68
2018-08-18T09:42:30.156Z,29.51
2018-08-18T09:43:51.029Z,29.46
2018-08-18T09:44:30.069Z,29.34
2018-08-18T09:45:29.991Z,29.18
2018-08-18T09:46:29.880Z,29.16
2018-08-18T09:47:29.782Z,29.14
2018-08-18T09:48:29.791Z,29.16
2018-08-18T09:49:50.633Z,29.26
2018-08-18T09:50:29.700Z,29.34
2018-08-18T09:51:29.521Z,29.40
2018-08-18T09:52:29.508Z,29.46
2018-08-18T09:53:29.385Z,29.59
2018-08-18T09:54:29.424Z,29.78
2018-08-18T09:55:50.240Z,29.73
2018-08-18T09:56:29.228Z,29.77
2018-08-18T09:57:29.124Z,29.84
2018-08-18T09:58:29.140Z,29.77
2018-08-18T09:59:28.992Z,29.65
2018-08-18T10:00:28.953Z,29.68
2018-08-18T10:01:49.843Z,29.51
2018-08-18T10:02:28.858Z,29.46
2018-08-18T10:03:28.734Z,29.38
2018-08-18T10:04:28.769Z,29.29
2018-08-18T10:05:28.597Z,29.34
2018-08-18T10:06:28.590Z,29.29
2018-08-18T10:07:49.456Z,29.14
2018-08-18T10:08:28.490Z,29.16
2018-08-18T10:09:28.337Z,29.14
2018-08-18T10:10:28.297Z,29.07
2018-08-18T10:11:28.202Z,29.13
2018-08-18T10:12:28.209Z,29.07
2018-08-18T10:13:49.061Z,29.10
2018-08-18T10:14:28.120Z,29.26
2018-08-18T10:15:28.017Z,29.23
2018-08-18T10:16:27.933Z,29.21
2018-08-18T10:17:27.831Z,29.19
2018-08-18T10:18:27.840Z,29.13
2018-08-18T10:19:48.670Z,29.13
2018-08-18T10:20:27.659Z,29.07
2018-08-18T10:21:27.549Z,29.13
2018-08-18T10:22:27.558Z,29.16
2018-08-18T10:23:27.425Z,29.14
2018-08-18T10:24:27.369Z,29.19
2018-08-18T10:25:48.273Z,29.25
2018-08-18T10:26:27.285Z,29.14
2018-08-18T10:27:27.247Z,29.11
2018-08-18T10:28:27.191Z,29.19
2018-08-18T10:29:27.030Z,29.25
2018-08-18T10:30:27.002Z,29.23
2018-08-18T10:31:47.880Z,29.41
2018-08-18T10:32:26.910Z,29.51
2018-08-18T10:33:26.796Z,29.60
2018-08-18T10:34:26.729Z,29.66
2018-08-18T10:35:26.642Z,29.74
2018-08-18T10:36:26.634Z,29.66
2018-08-18T10:37:47.488Z,29.74
2018-08-18T10:38:26.545Z,29.66
2018-08-18T10:39:26.377Z,29.69
2018-08-18T10:40:26.350Z,29.74
2018-08-18T10:41:26.247Z,29.80
2018-08-18T10:42:26.263Z,29.95
2018-08-18T10:43:47.100Z,30.00
2018-08-18T10:44:26.072Z,30.12
2018-08-18T10:45:25.983Z,30.21
2018-08-18T10:46:25.980Z,30.22
2018-08-18T10:47:25.856Z,30.36
2018-08-18T10:48:25.894Z,30.44
2018-08-18T10:49:46.710Z,30.48
2018-08-18T10:50:25.710Z,30.59
2018-08-18T10:51:25.593Z,30.59
2018-08-18T10:52:25.611Z,30.60
2018-08-18T10:53:25.470Z,30.59
2018-08-18T10:54:25.445Z,30.52
2018-08-18T10:55:46.316Z,30.50
2018-08-18T10:56:25.335Z,30.50
2018-08-18T10:57:25.208Z,30.48
2018-08-18T10:58:25.265Z,30.52
2018-08-18T10:59:25.074Z,30.39
2018-08-18T11:00:25.052Z,30.40
2018-08-18T11:01:45.987Z,30.53
2018-08-18T11:02:24.961Z,30.53
2018-08-18T11:03:24.811Z,30.56
2018-08-18T11:04:24.772Z,30.64
2018-08-18T11:05:24.686Z,30.62
2018-08-18T11:06:24.684Z,30.87
2018-08-18T11:07:45.544Z,30.86
2018-08-18T11:08:24.598Z,30.87
2018-08-18T11:09:24.425Z,30.93
2018-08-18T11:10:24.402Z,30.99
2018-08-18T11:11:24.299Z,31.08
2018-08-18T11:12:24.311Z,31.20
2018-08-18T11:13:45.157Z,31.23
2018-08-18T11:14:24.128Z,31.26
2018-08-18T11:15:24.040Z,31.08
2018-08-18T11:16:24.040Z,31.07
2018-08-18T11:17:23.908Z,30.99
2018-08-18T11:18:23.943Z,31.09
2018-08-18T11:19:44.778Z,31.21
2018-08-18T11:20:23.757Z,31.12
2018-08-18T11:21:23.661Z,31.07
2018-08-18T11:22:23.663Z,31.04
2018-08-18T11:23:23.528Z,31.11
2018-08-18T11:24:23.575Z,31.11
2018-08-18T11:25:44.391Z,31.16
2018-08-18T11:26:23.383Z,31.15
2018-08-18T11:27:23.277Z,31.08
2018-08-18T11:28:23.376Z,31.09
2018-08-18T11:29:23.155Z,31.26
2018-08-18T11:30:23.081Z,31.27
2018-08-18T11:31:44.003Z,31.44
2018-08-18T11:32:23.019Z,31.49
2018-08-18T11:33:22.892Z,31.55
2018-08-18T11:34:23.519Z,31.67
2018-08-18T11:35:22.765Z,31.78
2018-08-18T11:36:22.735Z,31.86
2018-08-18T11:37:43.617Z,31.86
2018-08-18T11:38:22.651Z,31.91
2018-08-18T11:39:22.513Z,31.90
2018-08-18T11:40:22.557Z,31.94
2018-08-18T11:41:22.377Z,32.02
2018-08-18T11:42:22.368Z,32.03
2018-08-18T11:43:43.238Z,32.06
2018-08-18T11:44:22.277Z,32.02
2018-08-18T11:45:22.125Z,32.06
2018-08-18T11:46:22.086Z,31.95
2018-08-18T11:47:21.999Z,31.90
2018-08-18T11:48:21.999Z,32.08
2018-08-18T11:49:42.870Z,31.99
2018-08-18T11:50:21.910Z,32.06
2018-08-18T11:51:21.909Z,32.02
2018-08-18T11:52:21.716Z,32.08
2018-08-18T11:53:21.619Z,32.08
2018-08-18T11:54:21.630Z,32.14
2018-08-18T11:55:42.483Z,32.20
2018-08-18T11:56:21.540Z,32.33
2018-08-18T11:57:21.371Z,32.38
2018-08-18T11:58:21.351Z,32.39
2018-08-18T11:59:21.237Z,32.38
2018-08-18T12:00:21.269Z,32.46
2018-08-18T12:01:42.096Z,32.36
2018-08-18T12:02:21.068Z,32.33
2018-08-18T12:03:20.984Z,32.42
2018-08-18T12:04:20.985Z,32.38
2018-08-18T12:05:20.854Z,32.43
2018-08-18T12:06:20.887Z,32.57
2018-08-18T12:07:41.719Z,32.58
2018-08-18T12:08:20.699Z,32.72
2018-08-18T12:09:20.603Z,32.76
2018-08-18T12:10:20.611Z,32.72
2018-08-18T12:11:20.479Z,32.83
2018-08-18T12:12:20.521Z,32.73
2018-08-18T12:13:41.338Z,32.77
2018-08-18T12:14:20.331Z,32.82
2018-08-18T12:15:20.226Z,32.73
2018-08-18T12:16:20.239Z,32.65
2018-08-18T12:17:20.097Z,32.57
2018-08-18T12:18:20.150Z,32.58
2018-08-18T12:19:40.964Z,32.61
2018-08-18T12:20:19.974Z,32.75
2018-08-18T12:21:19.848Z,32.88
2018-08-18T12:22:19.872Z,32.73
2018-08-18T12:23:19.725Z,32.72
2018-08-18T12:24:19.682Z,32.67
2018-08-18T12:25:40.735Z,32.61
2018-08-18T12:26:19.542Z,32.58
2018-08-18T12:27:19.500Z,32.64
2018-08-18T12:28:19.414Z,32.72
2018-08-18T12:29:19.431Z,32.69
2018-08-18T12:30:19.282Z,32.69
2018-08-18T12:31:40.310Z,32.60
2018-08-18T12:32:19.162Z,32.35
2018-08-18T12:33:19.093Z,32.36
2018-08-18T12:34:19.133Z,32.16
2018-08-18T12:35:18.967Z,32.03
2018-08-18T12:36:18.979Z,32.01
2018-08-18T12:37:39.827Z,32.08
2018-08-18T12:38:18.855Z,32.05
2018-08-18T12:39:18.716Z,31.90
2018-08-18T12:40:18.719Z,31.68
2018-08-18T12:41:18.591Z,31.41
2018-08-18T12:42:18.635Z,31.26
2018-08-18T12:43:39.547Z,31.26
2018-08-18T12:44:18.408Z,31.45
2018-08-18T12:45:18.337Z,31.55
2018-08-18T12:46:18.289Z,31.71
2018-08-18T12:47:18.221Z,31.91
2018-08-18T12:48:18.159Z,31.99
2018-08-18T12:49:39.158Z,32.18
2018-08-18T12:50:18.123Z,32.39
2018-08-18T12:51:17.963Z,32.38